sensor_id;sensor_type;location;lat;lon;timestamp;P1;durP1;ratioP1;P2;durP2;ratioP2
5674;SDS011;2860;54.284;10.158;2023-05-01T00:00:53;8.68;;;7.95;;
5674;SDS011;2860;54.284;10.158;2023-05-01T00:03:19;13.73;;;7.78;;
5674;SDS011;2860;54.284;10.158;2023-05-01T00:05:45;12.80;;;8.30;;
5674;SDS011;2860;54.284;10.158;2023-05-01T00:08:11;11.00;;;9.18;;
5674;SDS011;2860;54.284;10.158;2023-05-01T00:10:37;12.25;;;7.47;;
5674;SDS011;2860;54.284;10.158;2023-05-01T00:13:03;9.55;;;8.52;;
5674;SDS011;2860;54.284;10.158;2023-05-01T00:15:29;7.93;;;7.03;;
5674;SDS011;2860;54.284;10.158;2023-05-01T00:17:56;9.45;;;8.65;;
5674;SDS011;2860;54.284;10.158;2023-05-01T00:20:24;8.65;;;7.93;;
5674;SDS011;2860;54.284;10.158;2023-05-01T00:22:51;9.57;;;8.63;;
5674;SDS011;2860;54.284;10.158;2023-05-01T00:25:17;13.18;;;8.27;;
5674;SDS011;2860;54.284;10.158;2023-05-01T00:27:43;12.93;;;9.18;;
5674;SDS011;2860;54.284;10.158;2023-05-01T00:30:08;9.32;;;7.32;;
5674;SDS011;2860;54.284;10.158;2023-05-01T00:32:34;11.43;;;8.98;;
5674;SDS011;2860;54.284;10.158;2023-05-01T00:35:00;12.80;;;8.43;;
5674;SDS011;2860;54.284;10.158;2023-05-01T00:37:25;10.23;;;8.37;;
5674;SDS011;2860;54.284;10.158;2023-05-01T00:39:51;14.55;;;9.52;;
5674;SDS011;2860;54.284;10.158;2023-05-01T00:42:16;12.23;;;8.68;;
5674;SDS011;2860;54.284;10.158;2023-05-01T00:44:42;14.48;;;9.32;;
5674;SDS011;2860;54.284;10.158;2023-05-01T00:47:07;10.60;;;8.13;;
5674;SDS011;2860;54.284;10.158;2023-05-01T00:49:33;12.48;;;8.63;;
5674;SDS011;2860;54.284;10.158;2023-05-01T00:51:58;11.07;;;8.82;;
5674;SDS011;2860;54.284;10.158;2023-05-01T00:54:24;11.65;;;8.38;;
5674;SDS011;2860;54.284;10.158;2023-05-01T00:56:52;11.93;;;8.70;;
5674;SDS011;2860;54.284;10.158;2023-05-01T00:59:18;13.32;;;8.07;;
5674;SDS011;2860;54.284;10.158;2023-05-01T01:01:43;14.07;;;9.13;;
5674;SDS011;2860;54.284;10.158;2023-05-01T01:04:09;9.68;;;8.60;;
5674;SDS011;2860;54.284;10.158;2023-05-01T01:06:41;10.65;;;8.80;;
5674;SDS011;2860;54.284;10.158;2023-05-01T01:09:30;8.57;;;7.82;;
5674;SDS011;2860;54.284;10.158;2023-05-01T01:15:19;9.10;;;8.00;;
5674;SDS011;2860;54.284;10.158;2023-05-01T01:18:11;11.10;;;8.80;;
5674;SDS011;2860;54.284;10.158;2023-05-01T01:21:09;9.05;;;8.25;;
5674;SDS011;2860;54.284;10.158;2023-05-01T01:23:51;11.27;;;8.48;;
5674;SDS011;2860;54.284;10.158;2023-05-01T01:26:42;10.13;;;8.27;;
5674;SDS011;2860;54.284;10.158;2023-05-01T01:29:34;9.93;;;7.93;;
5674;SDS011;2860;54.284;10.158;2023-05-01T01:35:16;8.82;;;8.05;;
5674;SDS011;2860;54.284;10.158;2023-05-01T01:40:17;14.38;;;7.45;;
5674;SDS011;2860;54.284;10.158;2023-05-01T01:42:48;13.27;;;8.40;;
5674;SDS011;2860;54.284;10.158;2023-05-01T01:45:21;14.90;;;7.80;;
5674;SDS011;2860;54.284;10.158;2023-05-01T01:47:47;8.93;;;8.13;;
5674;SDS011;2860;54.284;10.158;2023-05-01T01:50:15;10.18;;;8.13;;
5674;SDS011;2860;54.284;10.158;2023-05-01T01:52:44;9.10;;;8.30;;
5674;SDS011;2860;54.284;10.158;2023-05-01T01:55:13;10.80;;;7.65;;
5674;SDS011;2860;54.284;10.158;2023-05-01T01:57:41;12.27;;;8.20;;
5674;SDS011;2860;54.284;10.158;2023-05-01T02:00:11;12.18;;;8.88;;
5674;SDS011;2860;54.284;10.158;2023-05-01T02:02:37;12.75;;;8.13;;
5674;SDS011;2860;54.284;10.158;2023-05-01T02:05:06;11.05;;;8.48;;
5674;SDS011;2860;54.284;10.158;2023-05-01T02:07:33;13.55;;;8.93;;
5674;SDS011;2860;54.284;10.158;2023-05-01T02:10:04;8.60;;;7.75;;
5674;SDS011;2860;54.284;10.158;2023-05-01T02:12:32;8.38;;;7.47;;
5674;SDS011;2860;54.284;10.158;2023-05-01T02:14:59;9.82;;;8.80;;
5674;SDS011;2860;54.284;10.158;2023-05-01T02:17:25;8.30;;;7.47;;
5674;SDS011;2860;54.284;10.158;2023-05-01T02:19:52;10.38;;;9.30;;
5674;SDS011;2860;54.284;10.158;2023-05-01T02:22:20;11.15;;;8.18;;
5674;SDS011;2860;54.284;10.158;2023-05-01T02:24:46;8.88;;;8.07;;
5674;SDS011;2860;54.284;10.158;2023-05-01T02:27:19;9.43;;;8.52;;
5674;SDS011;2860;54.284;10.158;2023-05-01T02:29:47;11.40;;;8.00;;
5674;SDS011;2860;54.284;10.158;2023-05-01T02:32:12;12.45;;;8.68;;
5674;SDS011;2860;54.284;10.158;2023-05-01T02:34:38;10.57;;;7.88;;
5674;SDS011;2860;54.284;10.158;2023-05-01T02:37:04;17.15;;;8.80;;
5674;SDS011;2860;54.284;10.158;2023-05-01T02:39:32;11.15;;;8.25;;
5674;SDS011;2860;54.284;10.158;2023-05-01T02:41:59;10.48;;;8.05;;
5674;SDS011;2860;54.284;10.158;2023-05-01T02:44:27;10.57;;;8.18;;
5674;SDS011;2860;54.284;10.158;2023-05-01T02:46:56;11.05;;;7.97;;
5674;SDS011;2860;54.284;10.158;2023-05-01T02:49:24;9.55;;;7.88;;
5674;SDS011;2860;54.284;10.158;2023-05-01T02:51:51;8.73;;;7.82;;
5674;SDS011;2860;54.284;10.158;2023-05-01T02:54:17;8.65;;;7.88;;
5674;SDS011;2860;54.284;10.158;2023-05-01T02:56:43;9.27;;;8.38;;
5674;SDS011;2860;54.284;10.158;2023-05-01T02:59:09;9.23;;;8.25;;
5674;SDS011;2860;54.284;10.158;2023-05-01T03:01:35;11.18;;;8.30;;
5674;SDS011;2860;54.284;10.158;2023-05-01T03:04:00;9.07;;;8.15;;
5674;SDS011;2860;54.284;10.158;2023-05-01T03:06:26;9.40;;;7.75;;
5674;SDS011;2860;54.284;10.158;2023-05-01T03:08:53;11.30;;;8.75;;
5674;SDS011;2860;54.284;10.158;2023-05-01T03:11:18;11.68;;;7.97;;
5674;SDS011;2860;54.284;10.158;2023-05-01T03:13:45;13.43;;;8.25;;
5674;SDS011;2860;54.284;10.158;2023-05-01T03:16:11;8.25;;;7.45;;
5674;SDS011;2860;54.284;10.158;2023-05-01T03:18:37;8.50;;;7.72;;
5674;SDS011;2860;54.284;10.158;2023-05-01T03:21:02;11.25;;;8.45;;
5674;SDS011;2860;54.284;10.158;2023-05-01T03:23:28;10.25;;;8.32;;
5674;SDS011;2860;54.284;10.158;2023-05-01T03:25:53;9.40;;;8.60;;
5674;SDS011;2860;54.284;10.158;2023-05-01T03:28:19;15.15;;;9.80;;
5674;SDS011;2860;54.284;10.158;2023-05-01T03:30:48;9.02;;;8.38;;
5674;SDS011;2860;54.284;10.158;2023-05-01T03:33:14;8.85;;;7.95;;
5674;SDS011;2860;54.284;10.158;2023-05-01T03:35:40;9.23;;;8.43;;
5674;SDS011;2860;54.284;10.158;2023-05-01T03:38:05;8.63;;;7.75;;
5674;SDS011;2860;54.284;10.158;2023-05-01T03:40:31;12.43;;;7.75;;
5674;SDS011;2860;54.284;10.158;2023-05-01T03:42:56;9.55;;;8.15;;
5674;SDS011;2860;54.284;10.158;2023-05-01T03:45:22;8.98;;;7.93;;
5674;SDS011;2860;54.284;10.158;2023-05-01T03:47:48;10.35;;;9.10;;
5674;SDS011;2860;54.284;10.158;2023-05-01T03:50:14;7.97;;;7.28;;
5674;SDS011;2860;54.284;10.158;2023-05-01T03:52:40;8.63;;;7.82;;
5674;SDS011;2860;54.284;10.158;2023-05-01T03:55:05;9.00;;;7.75;;
5674;SDS011;2860;54.284;10.158;2023-05-01T03:57:32;12.20;;;7.93;;
5674;SDS011;2860;54.284;10.158;2023-05-01T03:59:57;10.27;;;8.27;;
5674;SDS011;2860;54.284;10.158;2023-05-01T04:02:23;8.98;;;8.07;;
5674;SDS011;2860;54.284;10.158;2023-05-01T04:04:49;8.77;;;7.38;;
5674;SDS011;2860;54.284;10.158;2023-05-01T04:07:14;10.25;;;7.45;;
5674;SDS011;2860;54.284;10.158;2023-05-01T04:09:40;7.25;;;6.60;;
5674;SDS011;2860;54.284;10.158;2023-05-01T04:12:05;7.00;;;6.38;;
5674;SDS011;2860;54.284;10.158;2023-05-01T04:14:31;8.15;;;7.40;;
5674;SDS011;2860;54.284;10.158;2023-05-01T04:16:56;8.23;;;7.43;;
5674;SDS011;2860;54.284;10.158;2023-05-01T04:19:22;7.85;;;6.80;;
5674;SDS011;2860;54.284;10.158;2023-05-01T04:21:48;7.82;;;6.82;;
5674;SDS011;2860;54.284;10.158;2023-05-01T04:24:13;10.10;;;6.82;;
5674;SDS011;2860;54.284;10.158;2023-05-01T04:26:40;7.32;;;6.60;;
5674;SDS011;2860;54.284;10.158;2023-05-01T04:29:06;7.60;;;6.97;;
5674;SDS011;2860;54.284;10.158;2023-05-01T04:31:32;7.00;;;6.40;;
5674;SDS011;2860;54.284;10.158;2023-05-01T04:33:58;8.20;;;6.30;;
5674;SDS011;2860;54.284;10.158;2023-05-01T04:36:24;8.73;;;6.40;;
5674;SDS011;2860;54.284;10.158;2023-05-01T04:38:50;6.30;;;5.65;;
5674;SDS011;2860;54.284;10.158;2023-05-01T04:41:15;7.68;;;6.80;;
5674;SDS011;2860;54.284;10.158;2023-05-01T04:43:41;6.28;;;5.75;;
5674;SDS011;2860;54.284;10.158;2023-05-01T04:46:06;8.50;;;5.75;;
5674;SDS011;2860;54.284;10.158;2023-05-01T04:48:32;6.20;;;5.60;;
5674;SDS011;2860;54.284;10.158;2023-05-01T04:50:57;8.55;;;6.20;;
5674;SDS011;2860;54.284;10.158;2023-05-01T04:53:23;6.35;;;5.95;;
5674;SDS011;2860;54.284;10.158;2023-05-01T04:55:48;6.97;;;6.38;;
5674;SDS011;2860;54.284;10.158;2023-05-01T04:58:14;6.80;;;5.28;;
5674;SDS011;2860;54.284;10.158;2023-05-01T05:00:40;6.07;;;5.30;;
5674;SDS011;2860;54.284;10.158;2023-05-01T05:03:05;8.57;;;5.88;;
5674;SDS011;2860;54.284;10.158;2023-05-01T05:05:31;6.15;;;5.35;;
5674;SDS011;2860;54.284;10.158;2023-05-01T05:07:57;6.78;;;6.15;;
5674;SDS011;2860;54.284;10.158;2023-05-01T05:10:23;6.97;;;5.22;;
5674;SDS011;2860;54.284;10.158;2023-05-01T05:12:49;5.15;;;4.65;;
5674;SDS011;2860;54.284;10.158;2023-05-01T05:15:14;6.80;;;5.72;;
5674;SDS011;2860;54.284;10.158;2023-05-01T05:17:40;6.93;;;4.72;;
5674;SDS011;2860;54.284;10.158;2023-05-01T05:20:06;6.10;;;4.80;;
5674;SDS011;2860;54.284;10.158;2023-05-01T05:22:34;4.63;;;4.13;;
5674;SDS011;2860;54.284;10.158;2023-05-01T05:25:01;5.53;;;4.43;;
5674;SDS011;2860;54.284;10.158;2023-05-01T05:27:28;4.32;;;4.03;;
5674;SDS011;2860;54.284;10.158;2023-05-01T05:29:54;4.80;;;4.25;;
5674;SDS011;2860;54.284;10.158;2023-05-01T05:32:20;4.70;;;4.35;;
5674;SDS011;2860;54.284;10.158;2023-05-01T05:34:46;5.38;;;4.80;;
5674;SDS011;2860;54.284;10.158;2023-05-01T05:37:11;9.70;;;4.60;;
5674;SDS011;2860;54.284;10.158;2023-05-01T05:39:37;6.43;;;3.45;;
5674;SDS011;2860;54.284;10.158;2023-05-01T05:42:05;3.97;;;3.72;;
5674;SDS011;2860;54.284;10.158;2023-05-01T05:44:31;6.25;;;3.92;;
5674;SDS011;2860;54.284;10.158;2023-05-01T05:46:59;4.65;;;3.83;;
5674;SDS011;2860;54.284;10.158;2023-05-01T05:49:25;3.95;;;3.63;;
5674;SDS011;2860;54.284;10.158;2023-05-01T05:51:50;4.32;;;3.92;;
5674;SDS011;2860;54.284;10.158;2023-05-01T05:54:16;3.72;;;3.38;;
5674;SDS011;2860;54.284;10.158;2023-05-01T05:56:41;3.75;;;2.70;;
5674;SDS011;2860;54.284;10.158;2023-05-01T05:59:07;3.63;;;3.33;;
5674;SDS011;2860;54.284;10.158;2023-05-01T06:01:32;3.80;;;3.40;;
5674;SDS011;2860;54.284;10.158;2023-05-01T06:03:58;3.85;;;3.55;;
5674;SDS011;2860;54.284;10.158;2023-05-01T06:06:23;3.88;;;3.60;;
5674;SDS011;2860;54.284;10.158;2023-05-01T06:08:50;6.88;;;3.40;;
5674;SDS011;2860;54.284;10.158;2023-05-01T06:11:15;3.88;;;3.30;;
5674;SDS011;2860;54.284;10.158;2023-05-01T06:13:41;7.10;;;3.63;;
5674;SDS011;2860;54.284;10.158;2023-05-01T06:16:07;4.13;;;3.63;;
5674;SDS011;2860;54.284;10.158;2023-05-01T06:18:32;4.20;;;3.80;;
5674;SDS011;2860;54.284;10.158;2023-05-01T06:20:58;4.88;;;3.95;;
5674;SDS011;2860;54.284;10.158;2023-05-01T06:23:24;4.65;;;3.17;;
5674;SDS011;2860;54.284;10.158;2023-05-01T06:25:49;5.07;;;3.72;;
5674;SDS011;2860;54.284;10.158;2023-05-01T06:28:15;4.18;;;3.35;;
5674;SDS011;2860;54.284;10.158;2023-05-01T06:30:41;3.13;;;2.80;;
5674;SDS011;2860;54.284;10.158;2023-05-01T06:33:06;3.88;;;3.47;;
5674;SDS011;2860;54.284;10.158;2023-05-01T06:35:32;3.40;;;3.20;;
5674;SDS011;2860;54.284;10.158;2023-05-01T06:37:57;7.00;;;3.58;;
5674;SDS011;2860;54.284;10.158;2023-05-01T06:40:24;3.28;;;3.13;;
5674;SDS011;2860;54.284;10.158;2023-05-01T06:42:49;4.00;;;3.70;;
5674;SDS011;2860;54.284;10.158;2023-05-01T06:45:15;4.32;;;3.67;;
5674;SDS011;2860;54.284;10.158;2023-05-01T06:47:40;4.57;;;3.10;;
5674;SDS011;2860;54.284;10.158;2023-05-01T06:50:06;4.38;;;3.97;;
5674;SDS011;2860;54.284;10.158;2023-05-01T06:52:32;3.45;;;3.22;;
5674;SDS011;2860;54.284;10.158;2023-05-01T06:54:58;3.22;;;3.03;;
5674;SDS011;2860;54.284;10.158;2023-05-01T06:57:23;3.92;;;3.28;;
5674;SDS011;2860;54.284;10.158;2023-05-01T06:59:49;9.02;;;3.33;;
5674;SDS011;2860;54.284;10.158;2023-05-01T07:02:14;4.60;;;4.15;;
5674;SDS011;2860;54.284;10.158;2023-05-01T07:04:40;3.50;;;3.28;;
5674;SDS011;2860;54.284;10.158;2023-05-01T07:07:08;6.30;;;3.90;;
5674;SDS011;2860;54.284;10.158;2023-05-01T07:09:34;4.32;;;3.13;;
5674;SDS011;2860;54.284;10.158;2023-05-01T07:11:59;3.15;;;3.05;;
5674;SDS011;2860;54.284;10.158;2023-05-01T07:14:25;4.05;;;2.80;;
5674;SDS011;2860;54.284;10.158;2023-05-01T07:16:51;3.95;;;3.33;;
5674;SDS011;2860;54.284;10.158;2023-05-01T07:19:16;6.00;;;3.08;;
5674;SDS011;2860;54.284;10.158;2023-05-01T07:21:42;5.72;;;3.45;;
5674;SDS011;2860;54.284;10.158;2023-05-01T07:24:07;3.28;;;3.00;;
5674;SDS011;2860;54.284;10.158;2023-05-01T07:26:33;3.03;;;2.83;;
5674;SDS011;2860;54.284;10.158;2023-05-01T07:28:59;3.92;;;3.17;;
5674;SDS011;2860;54.284;10.158;2023-05-01T07:31:24;3.42;;;3.05;;
5674;SDS011;2860;54.284;10.158;2023-05-01T07:33:50;2.67;;;2.47;;
5674;SDS011;2860;54.284;10.158;2023-05-01T07:36:16;2.85;;;2.65;;
5674;SDS011;2860;54.284;10.158;2023-05-01T07:38:44;5.75;;;2.88;;
5674;SDS011;2860;54.284;10.158;2023-05-01T07:41:09;8.07;;;3.35;;
5674;SDS011;2860;54.284;10.158;2023-05-01T07:43:35;5.05;;;3.33;;
5674;SDS011;2860;54.284;10.158;2023-05-01T07:46:01;3.08;;;2.97;;
5674;SDS011;2860;54.284;10.158;2023-05-01T07:48:26;4.45;;;3.53;;
5674;SDS011;2860;54.284;10.158;2023-05-01T07:50:52;3.72;;;2.55;;
5674;SDS011;2860;54.284;10.158;2023-05-01T07:53:18;5.03;;;3.00;;
5674;SDS011;2860;54.284;10.158;2023-05-01T07:55:46;4.65;;;2.80;;
5674;SDS011;2860;54.284;10.158;2023-05-01T07:58:11;9.00;;;3.42;;
5674;SDS011;2860;54.284;10.158;2023-05-01T08:00:37;3.05;;;2.83;;
5674;SDS011;2860;54.284;10.158;2023-05-01T08:03:03;6.80;;;4.13;;
5674;SDS011;2860;54.284;10.158;2023-05-01T08:05:28;8.38;;;3.17;;
5674;SDS011;2860;54.284;10.158;2023-05-01T08:07:55;5.45;;;2.40;;
5674;SDS011;2860;54.284;10.158;2023-05-01T08:10:21;2.78;;;2.53;;
5674;SDS011;2860;54.284;10.158;2023-05-01T08:12:46;6.10;;;2.75;;
5674;SDS011;2860;54.284;10.158;2023-05-01T08:15:12;4.18;;;2.67;;
5674;SDS011;2860;54.284;10.158;2023-05-01T08:17:37;3.22;;;2.63;;
5674;SDS011;2860;54.284;10.158;2023-05-01T08:20:03;3.67;;;2.65;;
5674;SDS011;2860;54.284;10.158;2023-05-01T08:22:29;2.72;;;2.55;;
5674;SDS011;2860;54.284;10.158;2023-05-01T08:24:55;5.28;;;2.83;;
5674;SDS011;2860;54.284;10.158;2023-05-01T08:27:20;3.30;;;2.50;;
5674;SDS011;2860;54.284;10.158;2023-05-01T08:29:46;5.97;;;2.60;;
5674;SDS011;2860;54.284;10.158;2023-05-01T08:32:12;3.40;;;2.85;;
5674;SDS011;2860;54.284;10.158;2023-05-01T08:34:39;2.58;;;2.50;;
5674;SDS011;2860;54.284;10.158;2023-05-01T08:37:04;4.65;;;2.85;;
5674;SDS011;2860;54.284;10.158;2023-05-01T08:39:30;3.58;;;2.80;;
5674;SDS011;2860;54.284;10.158;2023-05-01T08:41:55;2.70;;;2.47;;
5674;SDS011;2860;54.284;10.158;2023-05-01T08:44:22;2.65;;;2.47;;
5674;SDS011;2860;54.284;10.158;2023-05-01T08:46:59;3.25;;;2.50;;
5674;SDS011;2860;54.284;10.158;2023-05-01T08:49:39;2.88;;;2.67;;
5674;SDS011;2860;54.284;10.158;2023-05-01T08:52:06;3.45;;;3.25;;
5674;SDS011;2860;54.284;10.158;2023-05-01T08:54:33;3.60;;;2.65;;
5674;SDS011;2860;54.284;10.158;2023-05-01T08:57:00;4.38;;;2.90;;
5674;SDS011;2860;54.284;10.158;2023-05-01T08:59:33;3.42;;;2.42;;
5674;SDS011;2860;54.284;10.158;2023-05-01T09:01:59;2.30;;;2.20;;
5674;SDS011;2860;54.284;10.158;2023-05-01T09:04:29;3.13;;;2.90;;
5674;SDS011;2860;54.284;10.158;2023-05-01T09:06:57;5.70;;;2.33;;
5674;SDS011;2860;54.284;10.158;2023-05-01T09:09:27;5.32;;;2.15;;
5674;SDS011;2860;54.284;10.158;2023-05-01T09:12:12;3.13;;;2.50;;
5674;SDS011;2860;54.284;10.158;2023-05-01T09:14:52;2.75;;;2.55;;
5674;SDS011;2860;54.284;10.158;2023-05-01T09:17:19;5.20;;;2.00;;
5674;SDS011;2860;54.284;10.158;2023-05-01T09:19:46;4.22;;;2.60;;
5674;SDS011;2860;54.284;10.158;2023-05-01T09:22:13;2.60;;;2.45;;
5674;SDS011;2860;54.284;10.158;2023-05-01T09:24:39;3.20;;;2.53;;
5674;SDS011;2860;54.284;10.158;2023-05-01T09:27:05;2.40;;;2.15;;
5674;SDS011;2860;54.284;10.158;2023-05-01T09:34:44;2.50;;;2.30;;
5674;SDS011;2860;54.284;10.158;2023-05-01T09:37:11;7.13;;;3.05;;
5674;SDS011;2860;54.284;10.158;2023-05-01T09:39:51;2.70;;;2.60;;
5674;SDS011;2860;54.284;10.158;2023-05-01T09:42:38;3.70;;;2.53;;
5674;SDS011;2860;54.284;10.158;2023-05-01T09:45:10;2.58;;;2.15;;
5674;SDS011;2860;54.284;10.158;2023-05-01T09:47:40;2.50;;;2.13;;
5674;SDS011;2860;54.284;10.158;2023-05-01T09:50:07;2.33;;;2.13;;
5674;SDS011;2860;54.284;10.158;2023-05-01T09:52:33;3.05;;;2.67;;
5674;SDS011;2860;54.284;10.158;2023-05-01T09:55:12;2.83;;;2.58;;
5674;SDS011;2860;54.284;10.158;2023-05-01T09:57:39;5.90;;;2.80;;
5674;SDS011;2860;54.284;10.158;2023-05-01T10:00:06;4.78;;;2.88;;
5674;SDS011;2860;54.284;10.158;2023-05-01T10:02:34;2.90;;;2.70;;
5674;SDS011;2860;54.284;10.158;2023-05-01T10:05:00;4.78;;;2.33;;
5674;SDS011;2860;54.284;10.158;2023-05-01T10:07:26;4.22;;;2.28;;
5674;SDS011;2860;54.284;10.158;2023-05-01T10:09:52;1.88;;;1.77;;
5674;SDS011;2860;54.284;10.158;2023-05-01T10:12:27;3.00;;;1.98;;
5674;SDS011;2860;54.284;10.158;2023-05-01T10:14:55;2.25;;;2.13;;
5674;SDS011;2860;54.284;10.158;2023-05-01T10:17:22;2.28;;;1.73;;
5674;SDS011;2860;54.284;10.158;2023-05-01T10:19:47;4.75;;;3.00;;
5674;SDS011;2860;54.284;10.158;2023-05-01T10:22:14;4.82;;;2.05;;
5674;SDS011;2860;54.284;10.158;2023-05-01T10:24:41;2.33;;;2.13;;
5674;SDS011;2860;54.284;10.158;2023-05-01T10:27:07;2.60;;;2.38;;
5674;SDS011;2860;54.284;10.158;2023-05-01T10:29:34;2.42;;;1.95;;
5674;SDS011;2860;54.284;10.158;2023-05-01T10:32:03;2.35;;;2.15;;
5674;SDS011;2860;54.284;10.158;2023-05-01T10:34:34;3.33;;;2.25;;
5674;SDS011;2860;54.284;10.158;2023-05-01T10:37:12;2.78;;;2.10;;
5674;SDS011;2860;54.284;10.158;2023-05-01T10:39:42;1.85;;;1.75;;
5674;SDS011;2860;54.284;10.158;2023-05-01T10:42:08;3.55;;;3.25;;
5674;SDS011;2860;54.284;10.158;2023-05-01T10:44:38;2.00;;;1.88;;
5674;SDS011;2860;54.284;10.158;2023-05-01T10:50:06;3.22;;;1.85;;
5674;SDS011;2860;54.284;10.158;2023-05-01T10:53:35;2.28;;;1.80;;
5674;SDS011;2860;54.284;10.158;2023-05-01T10:55:41;2.30;;;2.10;;
5674;SDS011;2860;54.284;10.158;2023-05-01T10:58:08;2.85;;;2.25;;
5674;SDS011;2860;54.284;10.158;2023-05-01T11:00:35;4.45;;;2.08;;
5674;SDS011;2860;54.284;10.158;2023-05-01T11:03:32;1.63;;;1.52;;
5674;SDS011;2860;54.284;10.158;2023-05-01T11:08:30;3.15;;;2.25;;
5674;SDS011;2860;54.284;10.158;2023-05-01T11:10:56;2.90;;;1.83;;
5674;SDS011;2860;54.284;10.158;2023-05-01T11:19:02;2.80;;;1.92;;
5674;SDS011;2860;54.284;10.158;2023-05-01T11:21:29;2.28;;;2.17;;
5674;SDS011;2860;54.284;10.158;2023-05-01T11:23:58;1.83;;;1.70;;
5674;SDS011;2860;54.284;10.158;2023-05-01T11:26:27;2.03;;;1.92;;
5674;SDS011;2860;54.284;10.158;2023-05-01T11:28:53;2.60;;;1.67;;
5674;SDS011;2860;54.284;10.158;2023-05-01T11:31:24;3.05;;;2.63;;
5674;SDS011;2860;54.284;10.158;2023-05-01T11:33:50;4.22;;;2.20;;
5674;SDS011;2860;54.284;10.158;2023-05-01T11:36:17;1.90;;;1.80;;
5674;SDS011;2860;54.284;10.158;2023-05-01T11:38:50;1.83;;;1.73;;
5674;SDS011;2860;54.284;10.158;2023-05-01T11:41:18;1.65;;;1.55;;
5674;SDS011;2860;54.284;10.158;2023-05-01T11:43:56;1.63;;;1.50;;
5674;SDS011;2860;54.284;10.158;2023-05-01T11:46:26;2.78;;;1.55;;
5674;SDS011;2860;54.284;10.158;2023-05-01T11:48:53;1.80;;;1.42;;
5674;SDS011;2860;54.284;10.158;2023-05-01T11:51:20;1.98;;;1.88;;
5674;SDS011;2860;54.284;10.158;2023-05-01T11:56:34;1.58;;;1.50;;
5674;SDS011;2860;54.284;10.158;2023-05-01T11:59:10;3.80;;;1.60;;
5674;SDS011;2860;54.284;10.158;2023-05-01T12:01:40;1.52;;;1.42;;
5674;SDS011;2860;54.284;10.158;2023-05-01T12:04:08;1.58;;;1.48;;
5674;SDS011;2860;54.284;10.158;2023-05-01T12:06:35;3.38;;;2.60;;
5674;SDS011;2860;54.284;10.158;2023-05-01T12:09:07;2.47;;;1.70;;
5674;SDS011;2860;54.284;10.158;2023-05-01T12:11:44;11.30;;;2.33;;
5674;SDS011;2860;54.284;10.158;2023-05-01T12:14:12;2.28;;;1.42;;
5674;SDS011;2860;54.284;10.158;2023-05-01T12:16:39;1.92;;;1.83;;
5674;SDS011;2860;54.284;10.158;2023-05-01T12:19:06;2.22;;;1.30;;
5674;SDS011;2860;54.284;10.158;2023-05-01T12:21:31;2.28;;;1.30;;
5674;SDS011;2860;54.284;10.158;2023-05-01T12:24:10;3.88;;;1.92;;
5674;SDS011;2860;54.284;10.158;2023-05-01T12:26:39;1.55;;;1.45;;
5674;SDS011;2860;54.284;10.158;2023-05-01T12:29:06;2.42;;;1.50;;
5674;SDS011;2860;54.284;10.158;2023-05-01T12:31:33;12.90;;;1.17;;
5674;SDS011;2860;54.284;10.158;2023-05-01T12:34:06;2.00;;;0.90;;
5674;SDS011;2860;54.284;10.158;2023-05-01T12:36:32;1.60;;;1.50;;
5674;SDS011;2860;54.284;10.158;2023-05-01T12:39:01;1.55;;;1.50;;
5674;SDS011;2860;54.284;10.158;2023-05-01T12:44:18;2.25;;;1.48;;
5674;SDS011;2860;54.284;10.158;2023-05-01T12:46:44;3.83;;;1.38;;
5674;SDS011;2860;54.284;10.158;2023-05-01T12:49:17;4.40;;;1.85;;
5674;SDS011;2860;54.284;10.158;2023-05-01T12:51:49;1.42;;;1.17;;
5674;SDS011;2860;54.284;10.158;2023-05-01T12:54:23;1.60;;;1.50;;
5674;SDS011;2860;54.284;10.158;2023-05-01T12:57:05;10.43;;;1.63;;
5674;SDS011;2860;54.284;10.158;2023-05-01T12:59:36;3.55;;;1.35;;
5674;SDS011;2860;54.284;10.158;2023-05-01T13:02:04;2.25;;;1.42;;
5674;SDS011;2860;54.284;10.158;2023-05-01T13:04:31;1.73;;;1.20;;
5674;SDS011;2860;54.284;10.158;2023-05-01T13:06:57;1.80;;;1.45;;
5674;SDS011;2860;54.284;10.158;2023-05-01T13:09:24;1.70;;;1.05;;
5674;SDS011;2860;54.284;10.158;2023-05-01T13:14:36;1.45;;;1.08;;
5674;SDS011;2860;54.284;10.158;2023-05-01T13:17:06;2.20;;;1.38;;
5674;SDS011;2860;54.284;10.158;2023-05-01T13:19:32;1.25;;;1.20;;
5674;SDS011;2860;54.284;10.158;2023-05-01T13:21:58;1.60;;;1.45;;
5674;SDS011;2860;54.284;10.158;2023-05-01T13:24:34;6.80;;;1.73;;
5674;SDS011;2860;54.284;10.158;2023-05-01T13:27:03;2.10;;;1.77;;
5674;SDS011;2860;54.284;10.158;2023-05-01T13:29:30;1.27;;;1.13;;
5674;SDS011;2860;54.284;10.158;2023-05-01T13:31:56;2.33;;;2.05;;
5674;SDS011;2860;54.284;10.158;2023-05-01T13:34:27;2.50;;;1.50;;
5674;SDS011;2860;54.284;10.158;2023-05-01T13:36:54;2.83;;;1.10;;
5674;SDS011;2860;54.284;10.158;2023-05-01T13:39:21;2.53;;;1.40;;
5674;SDS011;2860;54.284;10.158;2023-05-01T13:41:47;1.63;;;1.52;;
5674;SDS011;2860;54.284;10.158;2023-05-01T13:44:13;3.65;;;1.13;;
5674;SDS011;2860;54.284;10.158;2023-05-01T13:46:41;2.38;;;1.23;;
5674;SDS011;2860;54.284;10.158;2023-05-01T13:49:06;1.70;;;1.58;;
5674;SDS011;2860;54.284;10.158;2023-05-01T13:51:32;1.98;;;1.88;;
5674;SDS011;2860;54.284;10.158;2023-05-01T13:54:01;1.42;;;1.23;;
5674;SDS011;2860;54.284;10.158;2023-05-01T13:56:28;1.25;;;1.23;;
5674;SDS011;2860;54.284;10.158;2023-05-01T13:58:54;2.35;;;1.20;;
5674;SDS011;2860;54.284;10.158;2023-05-01T14:01:20;1.33;;;1.30;;
5674;SDS011;2860;54.284;10.158;2023-05-01T14:03:46;1.90;;;1.65;;
5674;SDS011;2860;54.284;10.158;2023-05-01T14:06:13;1.75;;;1.35;;
5674;SDS011;2860;54.284;10.158;2023-05-01T14:08:40;2.40;;;1.35;;
5674;SDS011;2860;54.284;10.158;2023-05-01T14:11:07;1.77;;;1.77;;
5674;SDS011;2860;54.284;10.158;2023-05-01T14:13:39;4.43;;;1.60;;
5674;SDS011;2860;54.284;10.158;2023-05-01T14:16:08;2.15;;;2.03;;
5674;SDS011;2860;54.284;10.158;2023-05-01T14:18:46;3.42;;;1.60;;
5674;SDS011;2860;54.284;10.158;2023-05-01T14:21:13;3.47;;;1.83;;
5674;SDS011;2860;54.284;10.158;2023-05-01T14:23:39;3.33;;;2.03;;
5674;SDS011;2860;54.284;10.158;2023-05-01T14:26:08;2.28;;;1.55;;
5674;SDS011;2860;54.284;10.158;2023-05-01T14:28:40;1.60;;;1.50;;
5674;SDS011;2860;54.284;10.158;2023-05-01T14:31:07;2.92;;;1.50;;
5674;SDS011;2860;54.284;10.158;2023-05-01T14:33:32;2.17;;;1.52;;
5674;SDS011;2860;54.284;10.158;2023-05-01T14:36:03;1.50;;;1.40;;
5674;SDS011;2860;54.284;10.158;2023-05-01T14:38:29;3.50;;;2.00;;
5674;SDS011;2860;54.284;10.158;2023-05-01T14:41:02;2.22;;;1.50;;
5674;SDS011;2860;54.284;10.158;2023-05-01T14:43:28;1.98;;;1.50;;
5674;SDS011;2860;54.284;10.158;2023-05-01T14:45:53;1.88;;;1.70;;
5674;SDS011;2860;54.284;10.158;2023-05-01T14:48:20;2.55;;;2.05;;
5674;SDS011;2860;54.284;10.158;2023-05-01T14:50:50;2.15;;;1.80;;
5674;SDS011;2860;54.284;10.158;2023-05-01T14:53:16;1.58;;;1.48;;
5674;SDS011;2860;54.284;10.158;2023-05-01T14:55:42;1.52;;;1.42;;
5674;SDS011;2860;54.284;10.158;2023-05-01T14:58:08;1.98;;;1.88;;
5674;SDS011;2860;54.284;10.158;2023-05-01T15:00:33;1.65;;;1.55;;
5674;SDS011;2860;54.284;10.158;2023-05-01T15:02:59;2.80;;;1.70;;
5674;SDS011;2860;54.284;10.158;2023-05-01T15:05:25;1.60;;;1.60;;
5674;SDS011;2860;54.284;10.158;2023-05-01T15:07:55;2.42;;;2.20;;
5674;SDS011;2860;54.284;10.158;2023-05-01T15:10:21;2.97;;;2.10;;
5674;SDS011;2860;54.284;10.158;2023-05-01T15:12:47;1.80;;;1.70;;
5674;SDS011;2860;54.284;10.158;2023-05-01T15:15:13;2.13;;;2.03;;
5674;SDS011;2860;54.284;10.158;2023-05-01T15:17:39;3.75;;;2.00;;
5674;SDS011;2860;54.284;10.158;2023-05-01T15:20:05;2.30;;;2.20;;
5674;SDS011;2860;54.284;10.158;2023-05-01T15:22:31;2.63;;;1.98;;
5674;SDS011;2860;54.284;10.158;2023-05-01T15:24:56;3.05;;;2.47;;
5674;SDS011;2860;54.284;10.158;2023-05-01T15:27:22;2.78;;;2.58;;
5674;SDS011;2860;54.284;10.158;2023-05-01T15:29:47;3.92;;;2.45;;
5674;SDS011;2860;54.284;10.158;2023-05-01T15:32:13;5.55;;;2.25;;
5674;SDS011;2860;54.284;10.158;2023-05-01T15:34:39;3.78;;;2.92;;
5674;SDS011;2860;54.284;10.158;2023-05-01T15:37:05;2.67;;;2.50;;